sensor_id;sensor_type;location;lat;lon;timestamp;pressure;altitude;pressure_sealevel;temperature;humidity
11672;BME280;5892;43.412;24.612;2022-10-28T00:04:37;101309.47;;;10.54;89.70
11672;BME280;5892;43.412;24.612;2022-10-28T00:07:28;101322.38;;;10.53;90.16
11672;BME280;5892;43.412;24.612;2022-10-28T00:12:58;101351.50;;;10.39;90.59
11672;BME280;5892;43.412;24.612;2022-10-28T00:15:25;101324.06;;;10.44;90.29
11672;BME280;5892;43.412;24.612;2022-10-28T00:17:52;101234.22;;;10.02;89.73
11672;BME280;5892;43.412;24.612;2022-10-28T00:20:29;101308.47;;;10.45;89.73
11672;BME280;5892;43.412;24.612;2022-10-28T00:22:59;101314.72;;;10.50;89.98
11672;BME280;5892;43.412;24.612;2022-10-28T00:25:25;101298.91;;;10.37;90.17
11672;BME280;5892;43.412;24.612;2022-10-28T00:27:53;101306.22;;;10.47;90.54
11672;BME280;5892;43.412;24.612;2022-10-28T00:30:19;101292.94;;;10.30;90.69
11672;BME280;5892;43.412;24.612;2022-10-28T00:32:47;101310.44;;;10.34;91.09
11672;BME280;5892;43.412;24.612;2022-10-28T00:35:14;101306.28;;;10.42;90.94
11672;BME280;5892;43.412;24.612;2022-10-28T00:37:41;101315.91;;;10.39;90.62
11672;BME280;5892;43.412;24.612;2022-10-28T00:40:11;101311.00;;;10.31;91.12
11672;BME280;5892;43.412;24.612;2022-10-28T00:42:38;101281.28;;;10.09;91.12
11672;BME280;5892;43.412;24.612;2022-10-28T00:45:07;101282.63;;;10.12;91.44
11672;BME280;5892;43.412;24.612;2022-10-28T00:47:42;101309.13;;;10.27;91.40
11672;BME280;5892;43.412;24.612;2022-10-28T01:03:39;101310.34;;;10.00;93.34
11672;BME280;5892;43.412;24.612;2022-10-28T01:06:07;101293.72;;;9.87;93.61
11672;BME280;5892;43.412;24.612;2022-10-28T01:08:34;101309.03;;;9.93;93.51
11672;BME280;5892;43.412;24.612;2022-10-28T01:11:21;101306.53;;;9.96;93.70
11672;BME280;5892;43.412;24.612;2022-10-28T01:14:11;101309.31;;;9.91;93.99
11672;BME280;5892;43.412;24.612;2022-10-28T01:16:50;101309.06;;;9.88;94.40
11672;BME280;5892;43.412;24.612;2022-10-28T01:22:20;101297.03;;;9.84;94.73
11672;BME280;5892;43.412;24.612;2022-10-28T01:25:26;101310.72;;;9.84;95.01
11672;BME280;5892;43.412;24.612;2022-10-28T01:28:11;101310.69;;;9.89;95.12
11672;BME280;5892;43.412;24.612;2022-10-28T01:31:20;101302.53;;;9.78;95.43
11672;BME280;5892;43.412;24.612;2022-10-28T01:33:53;101297.41;;;9.62;95.74
11672;BME280;5892;43.412;24.612;2022-10-28T01:36:32;101313.47;;;9.84;95.60
11672;BME280;5892;43.412;24.612;2022-10-28T01:39:10;101261.63;;;9.38;95.42
11672;BME280;5892;43.412;24.612;2022-10-28T01:41:47;101294.13;;;9.60;95.91
11672;BME280;5892;43.412;24.612;2022-10-28T01:44:23;101323.63;;;9.78;96.03
11672;BME280;5892;43.412;24.612;2022-10-28T01:47:00;101333.47;;;9.74;96.27
11672;BME280;5892;43.412;24.612;2022-10-28T01:49:33;101315.97;;;9.70;96.09
11672;BME280;5892;43.412;24.612;2022-10-28T01:52:08;101315.19;;;9.59;96.91
11672;BME280;5892;43.412;24.612;2022-10-28T01:54:39;101278.03;;;9.43;97.06
11672;BME280;5892;43.412;24.612;2022-10-28T01:57:09;101319.56;;;9.60;97.02
11672;BME280;5892;43.412;24.612;2022-10-28T01:59:40;101322.31;;;9.60;97.43
11672;BME280;5892;43.412;24.612;2022-10-28T02:02:09;101320.94;;;9.58;97.35
11672;BME280;5892;43.412;24.612;2022-10-28T02:04:36;101324.50;;;9.58;97.48
11672;BME280;5892;43.412;24.612;2022-10-28T02:07:03;101336.00;;;9.55;97.33
11672;BME280;5892;43.412;24.612;2022-10-28T02:09:39;101322.91;;;9.52;97.28
11672;BME280;5892;43.412;24.612;2022-10-28T02:12:22;101320.16;;;9.52;97.17
11672;BME280;5892;43.412;24.612;2022-10-28T02:18:01;101318.56;;;9.41;97.79
11672;BME280;5892;43.412;24.612;2022-10-28T02:20:37;101296.44;;;9.17;97.92
11672;BME280;5892;43.412;24.612;2022-10-28T02:23:15;101310.34;;;9.36;98.50
11672;BME280;5892;43.412;24.612;2022-10-28T02:25:51;101318.59;;;9.31;98.65
11672;BME280;5892;43.412;24.612;2022-10-28T02:28:22;101299.47;;;9.06;98.84
11672;BME280;5892;43.412;24.612;2022-10-28T02:30:56;101272.44;;;8.89;99.50
11672;BME280;5892;43.412;24.612;2022-10-28T02:33:28;101250.06;;;8.72;99.24
11672;BME280;5892;43.412;24.612;2022-10-28T02:36:34;101186.94;;;8.07;98.85
11672;BME280;5892;43.412;24.612;2022-10-28T02:42:13;101297.31;;;8.87;98.96
11672;BME280;5892;43.412;24.612;2022-10-28T02:45:14;101313.69;;;9.08;99.43
11672;BME280;5892;43.412;24.612;2022-10-28T02:48:06;101279.84;;;8.83;98.63
11672;BME280;5892;43.412;24.612;2022-10-28T02:50:38;101275.19;;;8.84;98.74
11672;BME280;5892;43.412;24.612;2022-10-28T02:53:12;101312.03;;;9.07;98.94
11672;BME280;5892;43.412;24.612;2022-10-28T02:55:59;101311.78;;;9.03;98.86
11672;BME280;5892;43.412;24.612;2022-10-28T02:58:37;101283.41;;;8.79;99.26
11672;BME280;5892;43.412;24.612;2022-10-28T03:01:05;101289.13;;;8.72;99.92
11672;BME280;5892;43.412;24.612;2022-10-28T03:03:32;101268.38;;;8.66;99.97
11672;BME280;5892;43.412;24.612;2022-10-28T03:06:00;101312.06;;;8.97;99.68
11672;BME280;5892;43.412;24.612;2022-10-28T03:12:22;101291.31;;;8.70;100.00
11672;BME280;5892;43.412;24.612;2022-10-28T03:17:51;101243.22;;;8.54;99.53
11672;BME280;5892;43.412;24.612;2022-10-28T03:24:14;101173.28;;;7.72;99.94
11672;BME280;5892;43.412;24.612;2022-10-28T03:26:43;101270.56;;;8.54;100.00
11672;BME280;5892;43.412;24.612;2022-10-28T03:29:11;101320.00;;;8.88;100.00
11672;BME280;5892;43.412;24.612;2022-10-28T03:31:38;101323.56;;;8.73;100.00
11672;BME280;5892;43.412;24.612;2022-10-28T03:34:05;101330.66;;;8.74;100.00
11672;BME280;5892;43.412;24.612;2022-10-28T03:36:32;101238.84;;;8.28;100.00
11672;BME280;5892;43.412;24.612;2022-10-28T03:39:00;101318.94;;;8.74;100.00
11672;BME280;5892;43.412;24.612;2022-10-28T03:41:29;101304.97;;;8.65;100.00
11672;BME280;5892;43.412;24.612;2022-10-28T03:46:31;101322.47;;;8.79;100.00
11672;BME280;5892;43.412;24.612;2022-10-28T03:52:03;101316.47;;;8.67;100.00
11672;BME280;5892;43.412;24.612;2022-10-28T03:54:30;101225.72;;;7.99;100.00
11672;BME280;5892;43.412;24.612;2022-10-28T03:57:01;101317.28;;;8.68;100.00
11672;BME280;5892;43.412;24.612;2022-10-28T03:59:28;101315.91;;;8.55;100.00
11672;BME280;5892;43.412;24.612;2022-10-28T04:01:55;101331.78;;;8.58;100.00
11672;BME280;5892;43.412;24.612;2022-10-28T04:04:22;101320.53;;;8.55;100.00
11672;BME280;5892;43.412;24.612;2022-10-28T04:06:49;101320.28;;;8.61;100.00
11672;BME280;5892;43.412;24.612;2022-10-28T04:09:16;101278.22;;;8.42;100.00
11672;BME280;5892;43.412;24.612;2022-10-28T04:18:41;101312.91;;;8.57;100.00
11672;BME280;5892;43.412;24.612;2022-10-28T04:21:08;101302.22;;;8.30;100.00
11672;BME280;5892;43.412;24.612;2022-10-28T04:23:35;101249.47;;;8.04;100.00
11672;BME280;5892;43.412;24.612;2022-10-28T04:26:02;101286.31;;;8.12;100.00
11672;BME280;5892;43.412;24.612;2022-10-28T04:28:29;101168.81;;;7.31;100.00
11672;BME280;5892;43.412;24.612;2022-10-28T04:30:56;101316.47;;;8.52;100.00
11672;BME280;5892;43.412;24.612;2022-10-28T04:33:37;101229.53;;;7.93;100.00
11672;BME280;5892;43.412;24.612;2022-10-28T04:36:06;101321.38;;;8.45;100.00
11672;BME280;5892;43.412;24.612;2022-10-28T04:38:35;101294.25;;;8.08;100.00
11672;BME280;5892;43.412;24.612;2022-10-28T04:41:02;101252.22;;;8.09;100.00
11672;BME280;5892;43.412;24.612;2022-10-28T04:43:29;101277.34;;;8.21;100.00
11672;BME280;5892;43.412;24.612;2022-10-28T04:45:56;101309.09;;;8.47;100.00
11672;BME280;5892;43.412;24.612;2022-10-28T04:48:23;101273.47;;;8.02;100.00
11672;BME280;5892;43.412;24.612;2022-10-28T04:50:50;101325.72;;;8.36;100.00
11672;BME280;5892;43.412;24.612;2022-10-28T04:53:20;101316.47;;;8.42;100.00
11672;BME280;5892;43.412;24.612;2022-10-28T04:55:56;101332.84;;;8.42;100.00
11672;BME280;5892;43.412;24.612;2022-10-28T04:58:33;101308.28;;;8.47;100.00
11672;BME280;5892;43.412;24.612;2022-10-28T05:01:04;101310.16;;;8.31;100.00
11672;BME280;5892;43.412;24.612;2022-10-28T05:03:32;101319.72;;;8.44;100.00
11672;BME280;5892;43.412;24.612;2022-10-28T05:06:02;101288.53;;;8.15;100.00
11672;BME280;5892;43.412;24.612;2022-10-28T05:08:30;101319.72;;;8.64;100.00
11672;BME280;5892;43.412;24.612;2022-10-28T05:10:57;101321.09;;;8.72;100.00
11672;BME280;5892;43.412;24.612;2022-10-28T05:13:24;101325.19;;;8.79;100.00
11672;BME280;5892;43.412;24.612;2022-10-28T05:15:51;101326.03;;;9.00;100.00
11672;BME280;5892;43.412;24.612;2022-10-28T05:18:18;101324.88;;;9.16;100.00
11672;BME280;5892;43.412;24.612;2022-10-28T05:20:47;101299.19;;;9.17;100.00
11672;BME280;5892;43.412;24.612;2022-10-28T05:23:29;101209.88;;;8.72;98.74
11672;BME280;5892;43.412;24.612;2022-10-28T05:25:56;101335.69;;;9.67;98.08
11672;BME280;5892;43.412;24.612;2022-10-28T05:28:23;101309.44;;;9.61;97.23
11672;BME280;5892;43.412;24.612;2022-10-28T05:30:52;101342.44;;;9.90;96.11
11672;BME280;5892;43.412;24.612;2022-10-28T05:33:19;101348.38;;;10.07;95.45
11672;BME280;5892;43.412;24.612;2022-10-28T05:35:46;101316.91;;;10.04;95.33
11672;BME280;5892;43.412;24.612;2022-10-28T05:41:38;101325.28;;;10.28;91.66
11672;BME280;5892;43.412;24.612;2022-10-28T05:45:05;101361.75;;;10.62;91.13
11672;BME280;5892;43.412;24.612;2022-10-28T05:47:30;101284.03;;;10.09;90.21
11672;BME280;5892;43.412;24.612;2022-10-28T05:49:57;101331.25;;;10.40;89.21
11672;BME280;5892;43.412;24.612;2022-10-28T05:52:24;101259.34;;;10.19;88.58
11672;BME280;5892;43.412;24.612;2022-10-28T05:55:05;101369.13;;;11.01;88.71
11672;BME280;5892;43.412;24.612;2022-10-28T05:57:35;101372.28;;;11.18;88.17
11672;BME280;5892;43.412;24.612;2022-10-28T06:03:40;101273.28;;;10.86;87.01
11672;BME280;5892;43.412;24.612;2022-10-28T06:06:08;101375.16;;;11.61;86.16
11672;BME280;5892;43.412;24.612;2022-10-28T06:08:37;101379.97;;;11.69;86.02
11672;BME280;5892;43.412;24.612;2022-10-28T06:11:04;101380.09;;;11.87;85.53
11672;BME280;5892;43.412;24.612;2022-10-28T06:13:32;101304.06;;;11.35;84.84
11672;BME280;5892;43.412;24.612;2022-10-28T06:15:59;101407.13;;;11.99;85.01
11672;BME280;5892;43.412;24.612;2022-10-28T06:18:26;101400.09;;;12.12;83.99
11672;BME280;5892;43.412;24.612;2022-10-28T06:20:54;101391.75;;;11.74;82.22
11672;BME280;5892;43.412;24.612;2022-10-28T06:23:22;101401.38;;;11.72;81.12
11672;BME280;5892;43.412;24.612;2022-10-28T06:25:50;101402.47;;;11.76;81.33
11672;BME280;5892;43.412;24.612;2022-10-28T06:28:18;101359.84;;;11.55;80.10
11672;BME280;5892;43.412;24.612;2022-10-28T06:30:46;101292.91;;;11.27;79.54
11672;BME280;5892;43.412;24.612;2022-10-28T06:33:14;101415.72;;;12.16;79.37
11672;BME280;5892;43.412;24.612;2022-10-28T06:35:41;101363.63;;;12.06;78.65
11672;BME280;5892;43.412;24.612;2022-10-28T06:38:07;101417.69;;;12.53;79.07
11672;BME280;5892;43.412;24.612;2022-10-28T06:40:34;101412.41;;;12.76;79.76
11672;BME280;5892;43.412;24.612;2022-10-28T06:43:03;101407.63;;;13.00;78.93
11672;BME280;5892;43.412;24.612;2022-10-28T06:45:31;101413.84;;;13.24;78.11
11672;BME280;5892;43.412;24.612;2022-10-28T06:48:01;101411.97;;;13.38;77.45
11672;BME280;5892;43.412;24.612;2022-10-28T06:50:29;101448.22;;;13.59;76.49
11672;BME280;5892;43.412;24.612;2022-10-28T06:52:56;101412.84;;;13.80;75.34
11672;BME280;5892;43.412;24.612;2022-10-28T06:55:23;101410.19;;;13.88;74.91
11672;BME280;5892;43.412;24.612;2022-10-28T06:57:51;101403.25;;;14.05;73.44
11672;BME280;5892;43.412;24.612;2022-10-28T07:00:18;101423.75;;;14.26;73.41
11672;BME280;5892;43.412;24.612;2022-10-28T07:02:49;101336.50;;;13.94;72.28
11672;BME280;5892;43.412;24.612;2022-10-28T07:05:17;101400.16;;;14.47;71.72
11672;BME280;5892;43.412;24.612;2022-10-28T07:07:44;101283.66;;;13.92;70.98
11672;BME280;5892;43.412;24.612;2022-10-28T07:10:11;101417.22;;;14.85;70.23
11672;BME280;5892;43.412;24.612;2022-10-28T07:12:38;101416.03;;;15.00;70.40
11672;BME280;5892;43.412;24.612;2022-10-28T07:15:06;101410.13;;;15.15;69.89
11672;BME280;5892;43.412;24.612;2022-10-28T07:17:33;101418.69;;;15.36;69.44
11672;BME280;5892;43.412;24.612;2022-10-28T07:20:14;101332.34;;;14.91;68.62
11672;BME280;5892;43.412;24.612;2022-10-28T07:22:42;101331.19;;;15.14;68.30
11672;BME280;5892;43.412;24.612;2022-10-28T07:25:09;101406.72;;;15.71;68.24
11672;BME280;5892;43.412;24.612;2022-10-28T07:27:36;101383.94;;;15.65;67.25
11672;BME280;5892;43.412;24.612;2022-10-28T07:30:04;101410.25;;;15.94;66.74
11672;BME280;5892;43.412;24.612;2022-10-28T07:32:31;101344.84;;;15.50;67.12
11672;BME280;5892;43.412;24.612;2022-10-28T07:34:58;101404.78;;;16.11;66.14
11672;BME280;5892;43.412;24.612;2022-10-28T07:37:25;101409.66;;;16.23;66.08
11672;BME280;5892;43.412;24.612;2022-10-28T07:39:53;101398.13;;;16.29;65.72
11672;BME280;5892;43.412;24.612;2022-10-28T07:42:20;101384.94;;;16.18;64.59
11672;BME280;5892;43.412;24.612;2022-10-28T07:44:47;101406.78;;;16.45;65.01
11672;BME280;5892;43.412;24.612;2022-10-28T07:47:14;101395.91;;;16.48;64.71
11672;BME280;5892;43.412;24.612;2022-10-28T07:49:42;101335.66;;;16.20;64.18
11672;BME280;5892;43.412;24.612;2022-10-28T07:52:09;101388.28;;;16.63;63.94
11672;BME280;5892;43.412;24.612;2022-10-28T07:54:35;101399.50;;;16.75;63.38
11672;BME280;5892;43.412;24.612;2022-10-28T07:57:04;101366.78;;;16.60;63.10
11672;BME280;5892;43.412;24.612;2022-10-28T07:59:31;101374.28;;;16.68;62.69
11672;BME280;5892;43.412;24.612;2022-10-28T08:01:58;101390.72;;;16.99;62.34
11672;BME280;5892;43.412;24.612;2022-10-28T08:04:28;101393.81;;;17.06;62.21
11672;BME280;5892;43.412;24.612;2022-10-28T08:07:29;101399.03;;;17.16;61.61
11672;BME280;5892;43.412;24.612;2022-10-28T08:09:57;101354.41;;;16.66;61.90
11672;BME280;5892;43.412;24.612;2022-10-28T08:12:25;101379.66;;;16.99;62.06
11672;BME280;5892;43.412;24.612;2022-10-28T08:18:12;101245.19;;;16.46;60.99
11672;BME280;5892;43.412;24.612;2022-10-28T08:20:39;101387.75;;;17.29;61.16
11672;BME280;5892;43.412;24.612;2022-10-28T08:23:20;101386.38;;;17.61;60.20
11672;BME280;5892;43.412;24.612;2022-10-28T08:25:47;101405.09;;;17.73;60.08
11672;BME280;5892;43.412;24.612;2022-10-28T08:28:16;101365.97;;;17.66;59.19
11672;BME280;5892;43.412;24.612;2022-10-28T08:30:43;101371.84;;;17.64;58.38
11672;BME280;5892;43.412;24.612;2022-10-28T08:33:11;101408.88;;;17.60;59.23
11672;BME280;5892;43.412;24.612;2022-10-28T08:35:38;101329.09;;;17.19;59.43
11672;BME280;5892;43.412;24.612;2022-10-28T08:38:05;101385.88;;;17.51;59.60
11672;BME280;5892;43.412;24.612;2022-10-28T08:40:38;101365.41;;;17.34;59.38
11672;BME280;5892;43.412;24.612;2022-10-28T08:43:29;101396.53;;;17.31;60.34
11672;BME280;5892;43.412;24.612;2022-10-28T08:46:06;101298.84;;;17.05;59.67
11672;BME280;5892;43.412;24.612;2022-10-28T08:48:51;101273.59;;;16.98;59.20
11672;BME280;5892;43.412;24.612;2022-10-28T08:51:21;101334.97;;;17.64;58.91
11672;BME280;5892;43.412;24.612;2022-10-28T08:53:53;101262.75;;;17.22;59.01
11672;BME280;5892;43.412;24.612;2022-10-28T09:03:23;101388.25;;;18.16;57.80
11672;BME280;5892;43.412;24.612;2022-10-28T09:05:59;101395.38;;;18.26;57.37
11672;BME280;5892;43.412;24.612;2022-10-28T09:08:29;101346.31;;;17.88;57.68
11672;BME280;5892;43.412;24.612;2022-10-28T09:11:12;101380.78;;;18.08;57.96
11672;BME280;5892;43.412;24.612;2022-10-28T09:13:55;101295.28;;;17.81;57.90
11672;BME280;5892;43.412;24.612;2022-10-28T09:17:01;101262.91;;;17.64;57.33
11672;BME280;5892;43.412;24.612;2022-10-28T09:19:39;101387.56;;;18.69;56.32
11672;BME280;5892;43.412;24.612;2022-10-28T09:22:22;101383.44;;;18.75;56.14
11672;BME280;5892;43.412;24.612;2022-10-28T09:30:38;101309.56;;;18.41;54.57
11672;BME280;5892;43.412;24.612;2022-10-28T09:31:42;101366.25;;;19.15;54.23
11672;BME280;5892;43.412;24.612;2022-10-28T09:34:18;101359.09;;;19.26;52.92
11672;BME280;5892;43.412;24.612;2022-10-28T09:40:16;101351.34;;;19.43;52.12
11672;BME280;5892;43.412;24.612;2022-10-28T09:42:48;101352.81;;;19.62;51.53
11672;BME280;5892;43.412;24.612;2022-10-28T09:45:20;101340.31;;;19.68;51.19
11672;BME280;5892;43.412;24.612;2022-10-28T09:47:54;101344.34;;;19.70;50.97
11672;BME280;5892;43.412;24.612;2022-10-28T09:50:27;101343.31;;;19.75;50.54
11672;BME280;5892;43.412;24.612;2022-10-28T09:53:02;101347.13;;;19.95;50.13
11672;BME280;5892;43.412;24.612;2022-10-28T09:55:30;101346.41;;;20.10;49.58
11672;BME280;5892;43.412;24.612;2022-10-28T09:57:58;101337.97;;;20.18;48.89
11672;BME280;5892;43.412;24.612;2022-10-28T10:00:25;101299.34;;;20.05;49.36
11672;BME280;5892;43.412;24.612;2022-10-28T10:02:56;101278.75;;;19.94;48.57
11672;BME280;5892;43.412;24.612;2022-10-28T10:05:24;101317.19;;;20.28;48.29
11672;BME280;5892;43.412;24.612;2022-10-28T10:07:54;101299.69;;;20.15;47.96
11672;BME280;5892;43.412;24.612;2022-10-28T10:10:26;101294.44;;;20.26;47.95
11672;BME280;5892;43.412;24.612;2022-10-28T10:12:57;101282.06;;;20.36;46.86
11672;BME280;5892;43.412;24.612;2022-10-28T10:15:29;101313.06;;;20.62;46.84
11672;BME280;5892;43.412;24.612;2022-10-28T10:17:58;101304.44;;;20.67;46.32
11672;BME280;5892;43.412;24.612;2022-10-28T10:20:26;101309.34;;;20.86;46.41
11672;BME280;5892;43.412;24.612;2022-10-28T10:22:53;101304.16;;;21.00;45.77
11672;BME280;5892;43.412;24.612;2022-10-28T10:25:26;101301.56;;;21.07;45.87
11672;BME280;5892;43.412;24.612;2022-10-28T10:27:57;101289.81;;;21.13;45.61
11672;BME280;5892;43.412;24.612;2022-10-28T10:30:29;101295.41;;;21.29;44.15
11672;BME280;5892;43.412;24.612;2022-10-28T10:33:17;101233.50;;;20.92;44.45
11672;BME280;5892;43.412;24.612;2022-10-28T10:36:16;101292.78;;;21.36;44.19
11672;BME280;5892;43.412;24.612;2022-10-28T10:38:46;101264.09;;;21.20;43.52
11672;BME280;5892;43.412;24.612;2022-10-28T10:41:36;101260.16;;;21.21;43.07
11672;BME280;5892;43.412;24.612;2022-10-28T10:44:24;101275.72;;;21.38;43.31
11672;BME280;5892;43.412;24.612;2022-10-28T10:47:16;101264.47;;;21.34;43.03
11672;BME280;5892;43.412;24.612;2022-10-28T10:49:45;101285.22;;;21.52;42.79
11672;BME280;5892;43.412;24.612;2022-10-28T10:52:19;101280.75;;;21.48;43.31
11672;BME280;5892;43.412;24.612;2022-10-28T10:54:57;101278.56;;;21.57;43.41
11672;BME280;5892;43.412;24.612;2022-10-28T10:57:26;101273.63;;;21.66;42.69
11672;BME280;5892;43.412;24.612;2022-10-28T10:59:55;101274.44;;;21.67;42.61
11672;BME280;5892;43.412;24.612;2022-10-28T11:02:25;101277.91;;;21.79;42.30
11672;BME280;5892;43.412;24.612;2022-10-28T11:04:56;101265.22;;;21.82;41.78
11672;BME280;5892;43.412;24.612;2022-10-28T11:07:25;101215.19;;;21.38;41.94
11672;BME280;5892;43.412;24.612;2022-10-28T11:09:54;101231.84;;;21.35;41.94
11672;BME280;5892;43.412;24.612;2022-10-28T11:12:30;101266.97;;;21.71;41.63
11672;BME280;5892;43.412;24.612;2022-10-28T11:15:01;101268.16;;;21.54;41.56
11672;BME280;5892;43.412;24.612;2022-10-28T11:17:30;101260.34;;;21.44;41.72
11672;BME280;5892;43.412;24.612;2022-10-28T11:20:21;101264.09;;;21.51;41.64
11672;BME280;5892;43.412;24.612;2022-10-28T11:22:55;101259.31;;;21.68;41.34
11672;BME280;5892;43.412;24.612;2022-10-28T11:25:33;101254.63;;;21.72;41.13
11672;BME280;5892;43.412;24.612;2022-10-28T11:34:43;101246.22;;;21.87;41.29
11672;BME280;5892;43.412;24.612;2022-10-28T11:37:14;101249.91;;;21.91;40.85
11672;BME280;5892;43.412;24.612;2022-10-28T11:39:54;101230.56;;;21.83;40.88
11672;BME280;5892;43.412;24.612;2022-10-28T11:42:31;101252.78;;;21.95;40.53
11672;BME280;5892;43.412;24.612;2022-10-28T11:45:07;101239.28;;;21.97;41.26
11672;BME280;5892;43.412;24.612;2022-10-28T11:47:50;101215.97;;;21.89;40.81
11672;BME280;5892;43.412;24.612;2022-10-28T11:50:31;101235.47;;;22.05;40.81
11672;BME280;5892;43.412;24.612;2022-10-28T11:53:30;101228.44;;;22.11;40.53
11672;BME280;5892;43.412;24.612;2022-10-28T11:56:11;101221.88;;;22.04;40.54
11672;BME280;5892;43.412;24.612;2022-10-28T11:58:46;101152.13;;;21.69;40.41
11672;BME280;5892;43.412;24.612;2022-10-28T12:01:34;101133.91;;;21.55;40.38
11672;BME280;5892;43.412;24.612;2022-10-28T12:04:13;101225.63;;;22.11;39.69
11672;BME280;5892;43.412;24.612;2022-10-28T12:07:04;101220.47;;;21.94;40.03
11672;BME280;5892;43.412;24.612;2022-10-28T12:09:45;101153.88;;;21.58;39.79
11672;BME280;5892;43.412;24.612;2022-10-28T12:12:22;101196.78;;;21.88;40.43
11672;BME280;5892;43.412;24.612;2022-10-28T12:14:58;101202.63;;;21.98;41.08
11672;BME280;5892;43.412;24.612;2022-10-28T12:18:01;101120.97;;;21.47;40.51
11672;BME280;5892;43.412;24.612;2022-10-28T12:20:41;101066.28;;;21.08;40.02
11672;BME280;5892;43.412;24.612;2022-10-28T12:23:13;101211.75;;;21.95;40.34
11672;BME280;5892;43.412;24.612;2022-10-28T12:25:45;101207.22;;;21.91;40.11
11672;BME280;5892;43.412;24.612;2022-10-28T12:28:18;101218.66;;;22.02;40.36
11672;BME280;5892;43.412;24.612;2022-10-28T12:30:48;101212.31;;;22.05;40.63
11672;BME280;5892;43.412;24.612;2022-10-28T12:33:31;101164.69;;;21.78;40.61
11672;BME280;5892;43.412;24.612;2022-10-28T12:36:17;101201.78;;;22.14;39.71
11672;BME280;5892;43.412;24.612;2022-10-28T12:38:52;101195.09;;;22.18;39.64
11672;BME280;5892;43.412;24.612;2022-10-28T12:41:50;101122.03;;;21.59;39.91
11672;BME280;5892;43.412;24.612;2022-10-28T12:48:03;101186.69;;;21.99;39.57
11672;BME280;5892;43.412;24.612;2022-10-28T12:54:26;101174.66;;;21.95;39.53
11672;BME280;5892;43.412;24.612;2022-10-28T12:57:02;101199.69;;;22.11;39.26
11672;BME280;5892;43.412;24.612;2022-10-28T13:06:36;101171.25;;;21.86;38.91
11672;BME280;5892;43.412;24.612;2022-10-28T13:24:33;101178.50;;;21.90;40.16
11672;BME280;5892;43.412;24.612;2022-10-28T13:27:04;101126.72;;;21.54;40.06
11672;BME280;5892;43.412;24.612;2022-10-28T13:29:36;101159.78;;;21.72;38.05
11672;BME280;5892;43.412;24.612;2022-10-28T13:32:36;101182.75;;;21.84;38.34
11672;BME280;5892;43.412;24.612;2022-10-28T13:35:11;101178.44;;;21.87;38.56
11672;BME280;5892;43.412;24.612;2022-10-28T13:37:45;101098.94;;;21.23;37.92
11672;BME280;5892;43.412;24.612;2022-10-28T13:40:23;101140.66;;;21.54;37.96
11672;BME280;5892;43.412;24.612;2022-10-28T13:43:17;101171.06;;;21.79;37.96
11672;BME280;5892;43.412;24.612;2022-10-28T13:45:49;101181.53;;;21.82;37.90
11672;BME280;5892;43.412;24.612;2022-10-28T13:51:32;101158.88;;;21.68;37.96
11672;BME280;5892;43.412;24.612;2022-10-28T13:53:59;101170.66;;;21.77;38.22
11672;BME280;5892;43.412;24.612;2022-10-28T13:56:34;101156.81;;;21.65;38.15
11672;BME280;5892;43.412;24.612;2022-10-28T13:59:04;101174.03;;;21.67;38.21
11672;BME280;5892;43.412;24.612;2022-10-28T14:01:53;101151.53;;;21.60;37.97
11672;BME280;5892;43.412;24.612;2022-10-28T14:04:26;101090.38;;;21.16;37.82
11672;BME280;5892;43.412;24.612;2022-10-28T14:07:19;101160.31;;;21.62;38.35
11672;BME280;5892;43.412;24.612;2022-10-28T14:09:50;101159.84;;;21.56;38.35
11672;BME280;5892;43.412;24.612;2022-10-28T14:12:28;101165.94;;;21.46;38.41
11672;BME280;5892;43.412;24.612;2022-10-28T14:15:02;101141.97;;;21.26;38.46
11672;BME280;5892;43.412;24.612;2022-10-28T14:17:35;101168.50;;;21.35;38.77
11672;BME280;5892;43.412;24.612;2022-10-28T14:20:05;101171.94;;;21.29;38.71
11672;BME280;5892;43.412;24.612;2022-10-28T14:22:34;101160.25;;;21.07;38.75
11672;BME280;5892;43.412;24.612;2022-10-28T14:25:02;101104.69;;;20.83;38.68
11672;BME280;5892;43.412;24.612;2022-10-28T14:27:39;101083.34;;;20.56;39.10
11672;BME280;5892;43.412;24.612;2022-10-28T14:33:20;101150.59;;;21.05;39.08
11672;BME280;5892;43.412;24.612;2022-10-28T14:35:51;101102.84;;;20.71;39.04
11672;BME280;5892;43.412;24.612;2022-10-28T14:41:59;101101.56;;;20.69;39.59
11672;BME280;5892;43.412;24.612;2022-10-28T14:44:51;100986.19;;;19.92;39.89
11672;BME280;5892;43.412;24.612;2022-10-28T14:47:39;101164.09;;;21.03;39.81
11672;BME280;5892;43.412;24.612;2022-10-28T14:50:16;101169.50;;;20.96;39.90
11672;BME280;5892;43.412;24.612;2022-10-28T14:52:45;101161.88;;;20.93;40.00
11672;BME280;5892;43.412;24.612;2022-10-28T14:55:21;101157.53;;;20.95;39.78
11672;BME280;5892;43.412;24.612;2022-10-28T14:57:49;101160.88;;;20.85;40.33
11672;BME280;5892;43.412;24.612;2022-10-28T15:00:20;101153.22;;;20.66;40.73
11672;BME280;5892;43.412;24.612;2022-10-28T15:02:47;101172.72;;;20.66;40.96
11672;BME280;5892;43.412;24.612;2022-10-28T15:05:17;101160.22;;;20.60;40.91
11672;BME280;5892;43.412;24.612;2022-10-28T15:07:46;101064.94;;;20.08;40.64
11672;BME280;5892;43.412;24.612;2022-10-28T15:10:14;101157.59;;;20.52;41.31
11672;BME280;5892;43.412;24.612;2022-10-28T15:12:43;101167.53;;;20.37;41.92
11672;BME280;5892;43.412;24.612;2022-10-28T15:15:21;101159.19;;;20.37;41.87
11672;BME280;5892;43.412;24.612;2022-10-28T15:17:48;101165.59;;;20.25;42.30
11672;BME280;5892;43.412;24.612;2022-10-28T15:20:21;101160.53;;;20.15;42.74
11672;BME280;5892;43.412;24.612;2022-10-28T15:22:49;101160.59;;;20.03;43.15
11672;BME280;5892;43.412;24.612;2022-10-28T15:25:29;101145.25;;;19.81;43.41
11672;BME280;5892;43.412;24.612;2022-10-28T15:27:56;101149.94;;;19.65;43.83